Time;durP1;ratioP1;P1;durP2;ratioP2;P2;SDS_P1;SDS_P2;PMS_P1;PMS_P2;Temp;Humidity;BMP_temperature;BMP_pressure;BME280_temperature;BME280_humidity;BME280_pressure;Samples;Min_cycle;Max_cycle;Signal;HPM_P1;HPM_P2
2023/07/07 00:00:27;;;;;;;13.07;6.97;;;;;;;16.69;71.38;102083.22;7394613;19;20089;-60
2023/07/07 00:02:54;;;;;;;9.52;5.32;;;;;;;16.68;71.55;102084.19;7393829;19;20138;-57
2023/07/07 00:05:21;;;;;;;10.88;6.03;;;;;;;16.66;71.64;102086.13;7388607;19;20030;-58
2023/07/07 00:07:49;;;;;;;12.15;6.22;;;;;;;16.63;71.82;102081.00;7391704;19;20480;-61
2023/07/07 00:10:17;;;;;;;9.70;5.60;;;;;;;16.68;71.85;102083.34;7386760;19;20033;-62
2023/07/07 00:12:45;;;;;;;10.93;6.20;;;;;;;16.68;71.83;102084.19;7390287;19;20102;-63
2023/07/07 00:15:13;;;;;;;10.15;5.95;;;;;;;16.66;71.89;102085.28;7391794;19;20011;-62
2023/07/07 00:17:41;;;;;;;9.85;5.93;;;;;;;16.53;72.15;102088.06;7391475;19;20019;-62
2023/07/07 00:20:11;;;;;;;9.73;5.50;;;;;;;16.50;71.78;102093.63;7391362;19;20014;-63
2023/07/07 00:22:39;;;;;;;10.02;5.85;;;;;;;16.37;71.84;102093.75;7392179;19;20116;-62
2023/07/07 00:25:08;;;;;;;10.88;6.22;;;;;;;16.18;72.75;102098.75;7390843;19;20018;-59
2023/07/07 00:27:37;;;;;;;9.70;5.63;;;;;;;16.36;72.11;102096.53;7390849;19;20015;-61
2023/07/07 00:30:07;;;;;;;9.80;5.63;;;;;;;16.11;72.81;102102.91;7391622;19;20018;-61
2023/07/07 00:32:34;;;;;;;11.85;5.95;;;;;;;15.98;73.21;102102.94;7392136;19;20031;-61
2023/07/07 00:35:02;;;;;;;9.07;5.60;;;;;;;15.94;74.07;102104.13;7390291;19;20049;-60
2023/07/07 00:37:29;;;;;;;9.27;5.32;;;;;;;16.16;73.04;102093.53;7394894;19;20376;-61
2023/07/07 00:39:57;;;;;;;8.20;5.38;;;;;;;16.26;72.71;102101.72;7390551;19;20085;-61
2023/07/07 00:42:24;;;;;;;8.43;5.03;;;;;;;16.31;72.08;102102.22;7391132;19;20028;-60
2023/07/07 00:45:10;;;;;;;8.95;5.00;;;;;;;16.35;72.18;102100.16;7389564;19;20038;-60
2023/07/07 00:47:43;;;;;;;9.32;5.35;;;;;;;16.25;72.56;102100.00;7390355;19;20040;-60
2023/07/07 00:50:12;;;;;;;;;;;;;;;16.12;72.99;102097.41;7391653;19;20098;-64
2023/07/07 00:52:42;;;;;;;8.95;5.22;;;;;;;16.12;72.79;102099.25;7391047;19;19919;-63
2023/07/07 00:55:16;;;;;;;9.88;5.85;;;;;;;16.19;71.94;102095.16;7390045;19;20019;-61
2023/07/07 00:57:43;;;;;;;9.60;5.53;;;;;;;15.83;73.56;102103.16;7390481;19;20019;-59
2023/07/07 01:00:12;;;;;;;7.13;4.80;;;;;;;16.02;73.17;102107.09;7389502;19;20022;-59
2023/07/07 01:02:44;;;;;;;12.07;6.05;;;;;;;15.74;73.73;102106.47;7390610;19;20092;-58
2023/07/07 01:05:11;;;;;;;10.10;5.88;;;;;;;15.49;74.73;102114.53;7390438;19;20019;-59
2023/07/07 01:07:43;;;;;;;8.13;5.13;;;;;;;15.76;73.88;102114.41;7388230;19;20039;-59
2023/07/07 01:10:11;;;;;;;7.38;5.20;;;;;;;15.95;73.11;102112.06;7390637;19;20031;-59
2023/07/07 01:12:38;;;;;;;10.88;6.60;;;;;;;15.71;73.75;102114.72;7390696;19;20094;-59
2023/07/07 01:15:07;;;;;;;9.15;5.53;;;;;;;15.79;73.79;102115.00;7388917;19;20018;-59
2023/07/07 01:17:40;;;;;;;12.25;6.47;;;;;;;16.01;72.96;102116.09;7392001;19;20022;-59
2023/07/07 01:20:34;;;;;;;10.38;6.07;;;;;;;16.21;72.28;102107.41;7396863;19;20106;-59
2023/07/07 01:23:26;;;;;;;8.63;5.53;;;;;;;16.21;72.35;102106.56;7398247;19;20418;-59
2023/07/07 01:26:14;;;;;;;8.35;4.95;;;;;;;16.12;72.61;102107.25;7397238;19;20011;-59
2023/07/07 01:28:48;;;;;;;10.23;5.38;;;;;;;16.09;72.64;102111.84;7395433;19;20472;-59
2023/07/07 01:31:32;;;;;;;8.55;4.80;;;;;;;16.12;72.34;102105.44;7397613;19;20039;-62
2023/07/07 01:34:02;;;;;;;9.68;5.53;;;;;;;16.07;72.54;102115.63;7397035;19;20023;-62
2023/07/07 01:36:29;;;;;;;9.43;5.85;;;;;;;15.86;73.48;102109.22;7398037;19;20089;-62
2023/07/07 01:38:56;;;;;;;10.13;5.45;;;;;;;15.91;73.22;102109.72;7395006;19;20018;-62
2023/07/07 01:41:40;;;;;;;10.43;5.80;;;;;;;16.00;73.06;102111.72;7394394;19;20026;-60
2023/07/07 01:44:24;;;;;;;9.50;5.97;;;;;;;15.68;73.80;102122.09;7397079;19;20017;-60
2023/07/07 01:47:18;;;;;;;9.07;5.35;;;;;;;15.80;73.58;102114.06;7396385;19;20146;-59
2023/07/07 01:49:51;;;;;;;;;;;;;;;15.77;73.32;102108.94;7397510;19;20018;-60
2023/07/07 01:52:34;;;;;;;9.93;5.57;;;;;;;15.86;72.89;102107.38;7396446;19;19922;-60
2023/07/07 01:55:20;;;;;;;10.00;5.37;;;;;;;15.92;72.58;102101.59;7394693;19;20175;-60
2023/07/07 01:57:52;;;;;;;9.90;4.95;;;;;;;16.01;72.29;102105.38;7396078;19;20402;-60
2023/07/07 02:00:21;;;;;;;9.93;4.80;;;;;;;15.96;72.12;102104.91;7395100;19;20077;-60
2023/07/07 02:02:50;;;;;;;8.50;5.07;;;;;;;15.93;72.00;102097.09;7396531;19;20017;-60
2023/07/07 02:05:18;;;;;;;7.55;4.65;;;;;;;15.92;71.71;102093.59;7395942;19;20360;-60
2023/07/07 02:07:45;;;;;;;10.10;5.70;;;;;;;15.95;71.42;102098.69;7395034;19;20471;-59
2023/07/07 02:10:12;;;;;;;8.77;5.47;;;;;;;15.88;71.86;102092.13;7396320;19;20054;-59
2023/07/07 02:12:40;;;;;;;9.57;5.28;;;;;;;15.88;71.68;102097.44;7395909;19;20022;-62
2023/07/07 02:15:07;;;;;;;9.48;5.03;;;;;;;15.81;71.72;102086.38;7395028;19;20025;-62
2023/07/07 02:17:35;;;;;;;11.95;5.20;;;;;;;15.75;71.92;102093.97;7394738;19;20483;-63
2023/07/07 02:20:03;;;;;;;9.55;4.78;;;;;;;15.76;71.76;102091.22;7395507;19;20025;-63
2023/07/07 02:22:30;;;;;;;7.95;4.50;;;;;;;15.77;71.60;102084.03;7395374;19;20082;-63
2023/07/07 02:24:58;;;;;;;9.27;4.65;;;;;;;15.71;71.32;102080.00;7394737;19;20018;-63
2023/07/07 02:27:25;;;;;;;13.05;5.53;;;;;;;15.71;71.35;102089.81;7394577;19;20018;-63
2023/07/07 02:29:52;;;;;;;8.57;5.35;;;;;;;15.66;71.39;102094.66;7392590;19;20018;-63
2023/07/07 02:32:19;;;;;;;9.02;5.10;;;;;;;15.65;71.76;102090.25;7393707;19;20440;-63
2023/07/07 02:34:49;;;;;;;10.52;5.50;;;;;;;15.68;71.70;102095.38;7395113;19;20022;-63
2023/07/07 02:37:18;;;;;;;9.02;4.90;;;;;;;15.66;71.55;102094.66;7398032;19;20018;-63
2023/07/07 02:39:45;;;;;;;9.75;5.35;;;;;;;15.65;71.49;102092.94;7395301;19;20022;-63
2023/07/07 02:42:14;;;;;;;10.57;6.32;;;;;;;15.68;71.73;102085.59;7395000;19;20022;-63
2023/07/07 02:44:41;;;;;;;10.32;6.20;;;;;;;15.72;71.59;102080.84;7394892;19;20047;-64
2023/07/07 02:47:09;;;;;;;12.82;6.15;;;;;;;15.73;71.45;102087.91;7394112;19;20018;-64
2023/07/07 02:49:36;;;;;;;11.05;5.80;;;;;;;15.65;71.93;102099.16;7395223;19;20043;-64
2023/07/07 02:52:05;;;;;;;9.77;6.75;;;;;;;15.41;72.65;102103.56;7394213;19;20022;-64
2023/07/07 02:54:34;;;;;;;11.30;6.90;;;;;;;15.43;72.98;102099.84;7394639;19;20023;-64
2023/07/07 02:57:02;;;;;;;10.15;6.78;;;;;;;15.48;72.79;102100.34;7393352;19;20034;-64
2023/07/07 02:59:29;;;;;;;12.07;6.40;;;;;;;15.48;72.78;102102.16;7394927;19;20044;-63
2023/07/07 03:01:57;;;;;;;9.50;5.25;;;;;;;15.55;72.57;102109.63;7390767;19;20025;-63
2023/07/07 03:04:24;;;;;;;8.25;5.18;;;;;;;15.53;72.54;102103.56;7394595;19;20022;-63
2023/07/07 03:06:52;;;;;;;9.32;5.10;;;;;;;15.54;72.61;102115.94;7393810;19;20476;-63
2023/07/07 03:09:19;;;;;;;10.05;5.53;;;;;;;15.58;72.10;102113.88;7391909;19;20018;-64
2023/07/07 03:11:47;;;;;;;12.45;5.40;;;;;;;15.55;72.00;102114.09;7392142;19;20022;-64
2023/07/07 03:14:17;;;;;;;10.18;5.50;;;;;;;15.52;71.62;102117.84;7394317;19;20019;-64
2023/07/07 03:16:51;;;;;;;10.30;4.93;;;;;;;15.43;72.22;102120.34;7393363;19;20036;-63
2023/07/07 03:19:19;;;;;;;8.05;4.68;;;;;;;15.41;72.25;102114.25;7392123;19;20475;-63
2023/07/07 03:21:47;;;;;;;9.13;4.88;;;;;;;15.41;72.16;102122.25;7392088;19;20014;-63
2023/07/07 03:24:15;;;;;;;9.32;4.78;;;;;;;15.46;72.03;102126.31;7394187;19;20022;-59
2023/07/07 03:26:43;;;;;;;9.65;5.13;;;;;;;15.46;71.51;102122.81;7393348;19;20125;-61
2023/07/07 03:29:10;;;;;;;8.82;4.68;;;;;;;15.43;71.42;102117.69;7391549;19;20019;-63
2023/07/07 03:31:38;;;;;;;7.82;4.40;;;;;;;15.39;71.20;102122.38;7393889;19;20112;-61
2023/07/07 03:34:07;;;;;;;8.05;4.50;;;;;;;15.41;71.36;102119.59;7392025;19;20018;-60
2023/07/07 03:36:35;;;;;;;9.25;4.70;;;;;;;15.40;71.00;102121.41;7395298;19;20136;-60
2023/07/07 03:39:03;;;;;;;9.13;5.00;;;;;;;15.37;71.28;102124.28;7391539;19;20062;-60
2023/07/07 03:41:31;;;;;;;8.35;4.53;;;;;;;15.39;71.27;102121.53;7390970;19;20348;-60
2023/07/07 03:43:58;;;;;;;10.52;5.22;;;;;;;15.39;71.41;102122.38;7393012;19;20027;-60
2023/07/07 03:46:28;;;;;;;9.80;5.97;;;;;;;15.19;72.08;102126.47;7390590;19;20028;-61
2023/07/07 03:48:56;;;;;;;9.93;5.88;;;;;;;14.95;73.13;102125.53;7390951;19;20023;-60
2023/07/07 03:51:24;;;;;;;8.82;5.13;;;;;;;14.89;73.67;102133.97;7393152;19;20086;-61
2023/07/07 03:53:52;;;;;;;11.13;5.95;;;;;;;14.86;73.97;102140.38;7392927;19;20018;-62
2023/07/07 03:56:19;;;;;;;9.35;5.47;;;;;;;14.86;74.02;102141.22;7392544;19;20021;-62
2023/07/07 03:58:47;;;;;;;9.70;5.88;;;;;;;14.89;74.36;102147.31;7391127;19;20071;-62
2023/07/07 04:01:15;;;;;;;8.23;5.53;;;;;;;15.11;73.89;102148.38;7391703;19;20021;-62
2023/07/07 04:03:44;;;;;;;8.48;5.78;;;;;;;15.32;72.85;102145.13;7390369;19;20019;-61
2023/07/07 04:06:15;;;;;;;8.57;5.80;;;;;;;15.38;72.24;102146.50;7392187;19;20026;-61
2023/07/07 04:08:42;;;;;;;9.25;5.55;;;;;;;15.14;73.22;102141.94;7390765;19;20206;-59
2023/07/07 04:11:12;;;;;;;10.27;5.90;;;;;;;15.05;74.14;102140.78;7392029;19;20347;-60
2023/07/07 04:13:41;;;;;;;10.32;6.40;;;;;;;14.99;74.56;102143.03;7392024;19;20015;-60
2023/07/07 04:16:14;;;;;;;12.40;6.70;;;;;;;14.88;75.28;102146.44;7391311;19;20081;-61
2023/07/07 04:18:42;;;;;;;9.85;6.20;;;;;;;14.90;75.42;102152.53;7389102;19;20022;-61
2023/07/07 04:21:17;;;;;;;9.73;6.03;;;;;;;15.18;74.51;102148.78;7391925;19;20060;-60
2023/07/07 04:23:46;;;;;;;9.63;6.25;;;;;;;15.24;74.26;102153.69;7391583;19;20021;-60
2023/07/07 04:26:13;;;;;;;10.63;6.10;;;;;;;15.17;74.44;102160.41;7391149;19;20028;-60
2023/07/07 04:28:41;;;;;;;10.27;6.22;;;;;;;15.16;75.04;102149.88;7390394;19;20022;-59
2023/07/07 04:31:10;;;;;;;9.18;5.93;;;;;;;15.21;75.09;102158.38;7390299;19;20042;-59
2023/07/07 04:33:38;;;;;;;8.38;5.43;;;;;;;15.20;75.36;102156.69;7389240;19;20038;-59
2023/07/07 04:36:09;;;;;;;7.95;5.50;;;;;;;15.33;75.14;102162.84;7391858;19;20018;-59
2023/07/07 04:38:36;;;;;;;10.50;5.57;;;;;;;15.49;74.84;102155.47;7389782;19;20025;-59
2023/07/07 04:41:10;;;;;;;10.25;5.47;;;;;;;15.56;74.72;102158.53;7390102;19;20495;-59
2023/07/07 04:43:40;;;;;;;9.25;5.45;;;;;;;15.52;75.13;102160.56;7390968;19;20018;-59
2023/07/07 04:46:10;;;;;;;9.32;5.75;;;;;;;15.48;75.07;102156.41;7389203;19;20357;-59
2023/07/07 04:48:38;;;;;;;8.90;5.07;;;;;;;15.49;75.04;102159.94;7388186;19;20717;-59
2023/07/07 04:51:07;;;;;;;8.63;5.45;;;;;;;15.53;75.08;102164.97;7390543;19;20019;-59
2023/07/07 04:53:36;;;;;;;9.18;5.10;;;;;;;15.65;75.28;102163.25;7389287;19;20039;-60
2023/07/07 04:56:12;;;;;;;8.43;5.13;;;;;;;15.68;75.13;102164.81;7389783;19;20018;-60
2023/07/07 04:58:40;;;;;;;10.20;5.53;;;;;;;15.65;75.21;102160.59;7389419;19;20077;-60
2023/07/07 05:01:12;;;;;;;8.30;5.22;;;;;;;15.86;74.60;102160.81;7389974;19;20090;-60
2023/07/07 05:03:41;;;;;;;8.57;5.70;;;;;;;16.01;73.92;102161.50;7390702;19;20619;-60
2023/07/07 05:06:10;;;;;;;10.73;5.65;;;;;;;16.10;73.32;102163.47;7388164;19;20844;-60
2023/07/07 05:08:40;;;;;;;10.23;5.47;;;;;;;16.22;72.99;102151.91;7389119;19;20018;-60
2023/07/07 05:11:13;;;;;;;9.50;5.40;;;;;;;16.36;72.03;102152.66;7390214;19;20070;-60
2023/07/07 05:13:41;;;;;;;9.15;5.60;;;;;;;16.35;71.96;102157.16;7390785;19;20100;-60
2023/07/07 05:16:11;;;;;;;9.70;5.15;;;;;;;16.44;71.65;102156.44;7389772;19;20078;-60
2023/07/07 05:18:39;;;;;;;11.95;5.47;;;;;;;16.56;71.23;102154.69;7389216;19;20022;-63
2023/07/07 05:21:08;;;;;;;9.10;5.57;;;;;;;16.62;71.06;102153.34;7389433;19;20015;-58
2023/07/07 05:23:36;;;;;;;8.70;5.70;;;;;;;16.60;71.09;102153.47;7390266;19;20035;-60
2023/07/07 05:26:04;;;;;;;12.18;5.40;;;;;;;16.65;70.80;102155.78;7389305;19;20022;-60
2023/07/07 05:28:32;;;;;;;10.90;5.55;;;;;;;16.73;70.32;102166.75;7388619;19;20101;-60
2023/07/07 05:30:59;;;;;;;10.13;5.47;;;;;;;16.77;70.34;102163.75;7389726;19;20058;-60
2023/07/07 05:33:29;;;;;;;12.65;5.32;;;;;;;16.83;70.24;102162.44;7388224;19;20015;-59
2023/07/07 05:36:00;;;;;;;8.57;5.47;;;;;;;16.89;69.86;102166.44;7388431;19;20324;-64
2023/07/07 05:38:29;;;;;;;8.23;4.70;;;;;;;16.94;69.43;102159.78;7388112;19;20141;-62
2023/07/07 05:40:57;;;;;;;10.18;5.30;;;;;;;16.99;69.49;102164.78;7389247;19;20086;-62
2023/07/07 05:43:26;;;;;;;12.13;5.57;;;;;;;17.03;69.18;102164.41;7389964;19;20035;-59
2023/07/07 05:45:59;;;;;;;8.82;5.18;;;;;;;17.10;68.90;102155.91;7388745;19;20022;-62
2023/07/07 05:48:27;;;;;;;11.30;5.15;;;;;;;17.10;68.80;102161.25;7387983;19;20019;-63
2023/07/07 05:51:00;;;;;;;11.40;5.35;;;;;;;17.16;68.77;102164.28;7388819;19;20096;-62
2023/07/07 05:53:28;;;;;;;10.65;5.38;;;;;;;17.16;68.47;102164.28;7389608;19;20030;-59
2023/07/07 05:56:03;;;;;;;9.27;4.70;;;;;;;17.26;67.41;102162.59;7388293;19;20027;-59
2023/07/07 05:58:31;;;;;;;9.85;5.07;;;;;;;17.26;67.61;102173.28;7386360;19;20038;-59
2023/07/07 06:00:58;;;;;;;8.02;4.55;;;;;;;17.34;67.40;102170.00;7388222;19;20035;-61
2023/07/07 06:03:26;;;;;;;8.52;5.03;;;;;;;17.39;67.18;102170.47;7391367;19;20411;-60
2023/07/07 06:05:53;;;;;;;9.50;4.43;;;;;;;17.44;66.99;102173.66;7394374;19;20011;-60
2023/07/07 06:08:21;;;;;;;10.95;5.18;;;;;;;17.54;66.79;102176.44;7395177;19;20018;-60
2023/07/07 06:10:49;;;;;;;8.13;4.38;;;;;;;17.58;66.74;102175.22;7395566;19;20779;-60
2023/07/07 06:13:17;;;;;;;8.90;4.20;;;;;;;17.63;66.40;102178.41;7396025;19;20014;-60
2023/07/07 06:15:45;;;;;;;10.23;5.07;;;;;;;17.64;65.99;102169.38;7395263;19;20029;-60
2023/07/07 06:18:12;;;;;;;9.75;4.70;;;;;;;17.63;65.94;102177.50;7394577;19;20033;-61
2023/07/07 06:20:39;;;;;;;8.55;4.13;;;;;;;17.65;65.83;102178.25;7394405;19;20026;-61
2023/07/07 06:23:08;;;;;;;10.40;4.40;;;;;;;17.74;65.46;102181.06;7391546;19;20014;-61
2023/07/07 06:25:35;;;;;;;8.85;4.25;;;;;;;17.81;65.33;102180.56;7395106;19;20043;-60
2023/07/07 06:28:03;;;;;;;10.23;4.25;;;;;;;17.85;64.87;102182.03;7394881;19;20039;-60
2023/07/07 06:30:30;;;;;;;7.50;3.92;;;;;;;17.88;64.76;102182.63;7395684;19;20025;-61
2023/07/07 06:33:02;;;;;;;10.75;4.07;;;;;;;17.91;64.80;102177.03;7395470;19;20089;-59
2023/07/07 06:35:30;;;;;;;9.97;4.47;;;;;;;17.95;64.61;102182.97;7394939;19;20155;-59
2023/07/07 06:37:57;;;;;;;7.78;4.05;;;;;;;18.00;64.67;102183.44;7398225;19;20032;-58
2023/07/07 06:40:25;;;;;;;7.75;4.03;;;;;;;18.03;64.49;102183.19;7395236;19;20025;-59
2023/07/07 06:42:55;;;;;;;9.18;3.80;;;;;;;18.09;64.47;102184.53;7393199;19;20484;-58
2023/07/07 06:45:22;;;;;;;8.60;4.90;;;;;;;18.15;64.10;102184.84;7394470;19;20043;-61
2023/07/07 06:47:49;;;;;;;7.60;4.13;;;;;;;18.18;63.97;102176.56;7394420;19;20018;-59
2023/07/07 06:50:28;;;;;;;8.10;3.90;;;;;;;18.25;63.25;102187.63;7393634;19;20014;-59
2023/07/07 06:52:55;;;;;;;9.38;4.47;;;;;;;18.24;63.96;102192.16;7394987;19;20506;-59
2023/07/07 06:55:23;;;;;;;9.63;4.20;;;;;;;18.34;63.40;102196.75;7394205;19;20046;-58
2023/07/07 06:57:50;;;;;;;9.90;4.03;;;;;;;18.38;63.57;102193.66;7393432;19;20022;-59
2023/07/07 07:00:18;;;;;;;8.15;4.18;;;;;;;18.42;63.00;102197.78;7395395;19;20132;-59
2023/07/07 07:02:45;;;;;;;8.07;3.85;;;;;;;18.47;62.66;102192.91;7393182;19;20094;-61
2023/07/07 07:05:13;;;;;;;7.25;3.80;;;;;;;18.52;62.37;102200.56;7392168;19;20019;-60
2023/07/07 07:07:40;;;;;;;9.57;3.45;;;;;;;18.60;61.79;102206.13;7393184;19;20018;-60
2023/07/07 07:10:10;;;;;;;7.00;3.38;;;;;;;18.67;61.73;102203.78;7392563;19;20019;-60
2023/07/07 07:12:37;;;;;;;7.47;3.30;;;;;;;18.71;61.65;102203.41;7394390;19;20437;-58
2023/07/07 07:15:05;;;;;;;6.40;3.50;;;;;;;18.78;61.04;102202.91;7391690;19;20421;-60
2023/07/07 07:17:32;;;;;;;7.95;3.30;;;;;;;18.87;60.94;102211.00;7393565;19;20027;-58
2023/07/07 07:20:05;;;;;;;9.18;3.83;;;;;;;18.93;60.60;102199.75;7394749;19;20022;-64
2023/07/07 07:22:33;;;;;;;9.13;3.33;;;;;;;18.96;60.63;102195.94;7392483;19;20025;-64
2023/07/07 07:25:00;;;;;;;7.15;3.50;;;;;;;19.01;60.71;102204.47;7393719;19;20018;-62
2023/07/07 07:27:28;;;;;;;9.27;3.58;;;;;;;19.05;60.16;102199.69;7390898;19;20026;-58
2023/07/07 07:29:55;;;;;;;6.10;3.10;;;;;;;19.11;60.24;102199.97;7393075;19;20068;-62
2023/07/07 07:32:23;;;;;;;7.03;3.00;;;;;;;19.19;60.52;102202.00;7392039;19;20046;-59
2023/07/07 07:34:50;;;;;;;9.57;2.90;;;;;;;19.24;60.54;102203.31;7392741;19;20046;-58
2023/07/07 07:37:17;;;;;;;8.57;3.50;;;;;;;19.29;60.77;102210.13;7395824;19;20015;-59
2023/07/07 07:39:45;;;;;;;8.27;3.30;;;;;;;19.29;60.74;102210.97;7393684;19;20010;-59
2023/07/07 07:42:12;;;;;;;8.38;3.80;;;;;;;19.37;59.95;102205.75;7392092;19;20022;-59
2023/07/07 07:44:39;;;;;;;6.00;2.45;;;;;;;19.40;59.24;102207.34;7393014;19;20019;-59
2023/07/07 07:47:06;;;;;;;6.90;2.90;;;;;;;19.47;59.46;102203.13;7392157;19;20056;-59
2023/07/07 07:49:34;;;;;;;5.43;3.05;;;;;;;19.54;59.13;102204.28;7393060;19;20491;-59
2023/07/07 07:52:02;;;;;;;7.95;2.70;;;;;;;19.56;59.05;102210.38;7390906;19;20029;-58
2023/07/07 07:54:29;;;;;;;5.90;2.70;;;;;;;19.55;59.28;102208.66;7392996;19;20077;-57
2023/07/07 07:56:57;;;;;;;6.00;2.50;;;;;;;19.55;59.23;102211.34;7390062;19;20030;-58
2023/07/07 07:59:24;;;;;;;7.10;2.65;;;;;;;19.66;58.59;102208.59;7393333;19;20030;-58
2023/07/07 08:01:51;;;;;;;6.68;2.70;;;;;;;19.77;58.34;102206.81;7392522;19;20473;-58
2023/07/07 08:04:19;;;;;;;8.95;2.55;;;;;;;19.76;57.57;102205.06;7392405;19;20022;-58
2023/07/07 08:06:55;;;;;;;7.47;2.60;;;;;;;19.88;56.70;102217.41;7391885;19;20031;-58
2023/07/07 08:09:22;;;;;;;7.95;2.90;;;;;;;19.83;56.32;102215.16;7387174;19;20034;-59
2023/07/07 08:11:49;;;;;;;5.88;2.80;;;;;;;19.89;56.89;102205.69;7392291;19;20037;-59
2023/07/07 08:14:19;;;;;;;7.13;2.50;;;;;;;19.94;56.54;102212.34;7391824;19;20018;-59
2023/07/07 08:16:49;;;;;;;5.90;2.30;;;;;;;19.94;55.51;102211.50;7389928;19;20014;-59
2023/07/07 08:19:16;;;;;;;5.70;2.40;;;;;;;19.93;55.72;102215.19;7389732;19;20346;-59
2023/07/07 08:21:47;;;;;;;5.05;2.30;;;;;;;19.96;54.89;102217.59;7390965;19;20376;-59
2023/07/07 08:24:15;;;;;;;7.00;2.33;;;;;;;20.13;54.08;102227.66;7391539;19;20078;-59
2023/07/07 08:26:44;;;;;;;6.85;2.40;;;;;;;20.22;53.06;102223.28;7391356;19;20010;-59
2023/07/07 08:29:11;;;;;;;6.70;2.00;;;;;;;20.16;52.77;102224.69;7389723;19;20022;-59
2023/07/07 08:31:41;;;;;;;5.05;2.10;;;;;;;20.09;53.25;102225.41;7390571;19;20082;-58
2023/07/07 08:34:09;;;;;;;6.38;1.98;;;;;;;20.14;51.40;102226.66;7390999;19;20018;-58
2023/07/07 08:36:36;;;;;;;6.45;1.90;;;;;;;20.20;50.60;102233.34;7392533;19;20022;-58
2023/07/07 08:39:14;;;;;;;6.28;1.67;;;;;;;20.25;49.37;102227.53;7388104;19;20030;-58
2023/07/07 08:41:49;;;;;;;4.03;1.70;;;;;;;20.33;48.79;102230.38;7391630;19;20022;-58
2023/07/07 08:44:19;;;;;;;6.55;2.15;;;;;;;20.33;47.95;102225.84;7391190;19;20110;-58
2023/07/07 08:47:08;;;;;;;4.03;1.90;;;;;;;20.43;47.62;102231.22;7390072;19;20018;-57
2023/07/07 08:49:47;;;;;;;5.03;2.30;;;;;;;20.57;47.23;102230.00;7390849;19;20032;-58
2023/07/07 08:52:42;;;;;;;7.63;2.65;;;;;;;20.61;47.90;102234.09;7389953;19;20213;-57
2023/07/07 08:55:38;;;;;;;6.00;2.00;;;;;;;20.64;48.00;102237.38;7389778;19;20026;-58
2023/07/07 08:58:13;;;;;;;5.07;1.88;;;;;;;20.76;46.83;102232.69;7390276;19;20025;-58
2023/07/07 09:01:18;;;;;;;3.80;1.60;;;;;;;20.81;46.49;102235.78;7390776;19;20083;-58
2023/07/07 09:04:03;;;;;;;5.57;2.10;;;;;;;20.87;46.38;102231.66;7388874;19;20014;-57
2023/07/07 09:06:39;;;;;;;7.07;2.00;;;;;;;20.80;46.68;102242.16;7390042;19;20067;-58
2023/07/07 09:09:15;;;;;;;4.47;2.03;;;;;;;20.79;46.69;102234.22;7388643;19;20015;-58
2023/07/07 09:12:04;;;;;;;5.70;2.05;;;;;;;20.95;44.92;102231.81;7390030;19;20086;-58
2023/07/07 09:14:31;;;;;;;6.55;2.05;;;;;;;20.96;45.10;102238.03;7390772;19;20025;-57
2023/07/07 09:17:06;;;;;;;4.55;2.13;;;;;;;21.00;43.99;102240.28;7389430;19;20038;-60
2023/07/07 09:19:37;;;;;;;6.47;2.20;;;;;;;21.07;43.54;102238.72;7390601;19;20040;-58
2023/07/07 09:22:26;;;;;;;7.72;2.15;;;;;;;21.08;42.71;102237.72;7389880;19;20039;-58
2023/07/07 09:25:28;;;;;;;4.72;2.00;;;;;;;21.15;42.48;102240.69;7389290;19;20019;-58
2023/07/07 09:28:16;;;;;;;6.25;2.40;;;;;;;21.03;42.30;102233.78;7389140;19;20019;-57
2023/07/07 09:31:03;;;;;;;5.65;2.28;;;;;;;21.07;41.71;102236.03;7389800;19;20042;-58
2023/07/07 09:33:30;;;;;;;3.85;1.98;;;;;;;21.14;42.17;102234.44;7389981;19;20010;-59
2023/07/07 09:36:36;;;;;;;5.40;2.13;;;;;;;21.24;41.97;102239.78;7390179;19;20484;-58
2023/07/07 09:39:21;;;;;;;6.65;2.50;;;;;;;21.25;41.18;102233.41;7389083;19;20089;-58
2023/07/07 09:41:51;;;;;;;5.95;2.65;;;;;;;21.20;41.16;102233.00;7397069;19;20015;-58
2023/07/07 09:44:34;;;;;;;6.05;2.40;;;;;;;21.22;40.02;102233.72;7395982;19;20019;-58
2023/07/07 09:47:25;;;;;;;7.78;2.60;;;;;;;21.14;39.71;102234.44;7396395;19;20026;-59
2023/07/07 09:50:09;;;;;;;5.60;2.38;;;;;;;21.26;40.28;102228.88;7396715;19;20082;-58
2023/07/07 09:52:39;;;;;;;;;;;;;;;21.23;40.41;102231.88;7397998;19;20547;-58
2023/07/07 09:55:14;;;;;;;3.85;2.05;;;;;;;21.31;40.96;102222.03;7394565;19;19942;-58
2023/07/07 09:58:10;;;;;;;7.43;2.45;;;;;;;21.46;40.71;102221.59;7396085;19;20018;-59
2023/07/07 10:00:39;;;;;;;6.20;2.38;;;;;;;21.51;40.76;102228.22;7394584;19;20035;-59
2023/07/07 10:03:32;;;;;;;5.28;2.00;;;;;;;21.65;39.33;102226.91;7395264;19;20090;-59
2023/07/07 10:06:06;;;;;;;4.68;2.13;;;;;;;21.60;39.04;102221.97;7396529;19;20041;-59
2023/07/07 10:08:33;;;;;;;4.97;2.17;;;;;;;21.50;39.68;102226.53;7394651;19;20014;-59
2023/07/07 10:11:14;;;;;;;5.22;2.38;;;;;;;21.60;38.89;102230.06;7396134;19;20028;-59
2023/07/07 10:14:05;;;;;;;7.93;2.50;;;;;;;21.54;38.89;102240.56;7394501;19;20022;-59
2023/07/07 10:16:38;;;;;;;4.97;2.45;;;;;;;21.64;38.63;102228.75;7395921;19;20022;-59
2023/07/07 10:19:09;;;;;;;4.82;2.33;;;;;;;21.62;38.76;102233.44;7393802;19;20035;-58
2023/07/07 10:21:37;;;;;;;6.40;2.30;;;;;;;21.65;38.30;102238.53;7396355;19;20078;-58
2023/07/07 10:24:05;;;;;;;4.78;1.95;;;;;;;21.66;38.10;102232.13;7391527;19;20010;-59
2023/07/07 10:26:33;;;;;;;6.65;2.65;;;;;;;21.69;37.78;102230.16;7393343;19;20014;-58
2023/07/07 10:29:04;;;;;;;5.57;2.60;;;;;;;21.64;37.94;102220.66;7393387;19;20014;-58
2023/07/07 10:31:31;;;;;;;6.43;2.78;;;;;;;21.66;38.08;102231.28;7394635;19;20019;-58
2023/07/07 10:34:21;;;;;;;6.18;2.20;;;;;;;21.83;37.74;102233.19;7393806;19;20495;-58
2023/07/07 10:36:48;;;;;;;8.68;2.90;;;;;;;21.92;38.25;102225.19;7396620;19;20018;-58
2023/07/07 10:39:15;;;;;;;6.68;2.90;;;;;;;21.94;38.00;102232.16;7392710;19;20614;-58
2023/07/07 10:41:42;;;;;;;5.80;2.50;;;;;;;21.91;37.54;102232.44;7394282;19;20014;-59
2023/07/07 10:44:09;;;;;;;7.53;2.55;;;;;;;21.89;38.17;102232.56;7392869;19;20026;-58
2023/07/07 10:46:37;;;;;;;6.03;2.25;;;;;;;21.84;38.82;102229.50;7395002;19;20036;-58
2023/07/07 10:49:04;;;;;;;8.77;2.83;;;;;;;21.94;37.98;102223.19;7391405;19;20039;-58
2023/07/07 10:51:37;;;;;;;4.80;2.45;;;;;;;22.04;37.16;102224.81;7390637;19;20115;-58
2023/07/07 10:54:10;;;;;;;8.25;2.78;;;;;;;22.09;36.44;102227.06;7393528;19;20085;-58
2023/07/07 10:56:47;;;;;;;7.40;2.70;;;;;;;22.17;36.68;102235.28;7393733;19;20112;-58
2023/07/07 10:59:22;;;;;;;7.22;2.60;;;;;;;22.07;36.37;102232.63;7392343;19;20047;-58
2023/07/07 11:01:56;;;;;;;6.50;2.70;;;;;;;22.11;35.89;102220.50;7394011;19;20014;-58
2023/07/07 11:04:35;;;;;;;6.07;2.70;;;;;;;22.23;35.53;102228.41;7392428;19;20010;-58
2023/07/07 11:07:07;;;;;;;6.47;3.10;;;;;;;22.25;34.24;102229.13;7393425;19;20094;-59
2023/07/07 11:10:12;;;;;;;9.47;2.90;;;;;;;22.20;33.54;102221.47;7394684;19;20035;-58
2023/07/07 11:13:02;;;;;;;8.15;2.60;;;;;;;22.14;34.40;102219.41;7394290;19;20088;-58
2023/07/07 11:15:42;;;;;;;8.15;2.50;;;;;;;22.27;34.94;102217.16;7393566;19;20018;-58
2023/07/07 11:18:25;;;;;;;3.85;2.13;;;;;;;22.33;35.05;102223.81;7392378;19;20039;-59
2023/07/07 11:21:27;;;;;;;7.68;2.63;;;;;;;22.32;35.70;102220.25;7394128;19;20027;-58
2023/07/07 11:24:19;;;;;;;6.68;2.63;;;;;;;22.56;34.84;102213.38;7391686;19;20078;-59
2023/07/07 11:27:21;;;;;;;5.85;2.47;;;;;;;22.73;35.65;102222.44;7393442;19;20426;-59
2023/07/07 11:29:58;;;;;;;6.65;2.53;;;;;;;22.66;36.12;102216.81;7393145;19;20010;-58
2023/07/07 11:32:33;;;;;;;6.90;2.40;;;;;;;22.71;35.34;102222.63;7393823;19;20031;-58
2023/07/07 11:35:17;;;;;;;6.57;2.30;;;;;;;22.88;35.17;102218.19;7392550;19;20014;-58
2023/07/07 11:37:47;;;;;;;6.55;2.40;;;;;;;22.75;36.44;102220.47;7397241;19;20031;-58
2023/07/07 11:40:33;;;;;;;5.30;2.30;;;;;;;22.91;34.31;102222.44;7393185;19;20130;-58
2023/07/07 11:43:09;;;;;;;5.90;2.20;;;;;;;22.84;34.89;102225.75;7390644;19;20022;-58
2023/07/07 11:45:58;;;;;;;5.88;2.40;;;;;;;22.71;35.18;102219.91;7392336;19;20026;-58